Time;durP1;ratioP1;P1;durP2;ratioP2;P2;SDS_P1;SDS_P2;PMS_P1;PMS_P2;Temp;Humidity;BMP_temperature;BMP_pressure;BME280_temperature;BME280_humidity;BME280_pressure;Samples;Min_cycle;Max_cycle;Signal;HPM_P1;HPM_P2
2021/09/12 00:02:31;;;;;;;8.50;4.18;;;;;;;15.66;65.78;100145.91;10412368;28;20095;-65
2021/09/12 00:07:33;;;;;;;7.57;3.88;;;;;;;15.69;65.55;100145.69;10391989;28;20184;-64
2021/09/12 00:12:37;;;;;;;12.25;3.97;;;;;;;15.58;65.47;100136.91;10407650;28;20061;-65
2021/09/12 00:17:40;;;;;;;24.75;5.75;;;;;;;15.47;65.66;100137.69;10418025;28;20057;-65
2021/09/12 00:22:41;;;;;;;8.65;4.90;;;;;;;15.39;65.52;100137.44;10422499;28;20053;-64
2021/09/12 00:27:43;;;;;;;23.73;6.43;;;;;;;15.32;65.82;100139.72;10414873;28;20099;-65
2021/09/12 00:32:45;;;;;;;30.15;6.95;;;;;;;15.26;65.72;100131.44;10421872;28;20056;-65
2021/09/12 00:37:50;;;;;;;18.65;5.50;;;;;;;15.20;66.12;100130.09;10415195;28;20049;-65
2021/09/12 00:42:52;;;;;;;9.65;5.22;;;;;;;15.22;66.47;100136.09;10420908;28;20220;-64
2021/09/12 00:47:54;;;;;;;9.05;4.13;;;;;;;15.37;66.15;100134.91;10421630;28;20126;-65
2021/09/12 00:53:02;;;;;;;8.60;4.10;;;;;;;15.55;65.90;100132.69;10420272;28;20069;-65
2021/09/12 00:58:04;;;;;;;7.88;4.57;;;;;;;15.62;65.47;100144.47;10416445;28;20615;-65
2021/09/12 01:03:06;;;;;;;20.08;4.72;;;;;;;15.68;65.60;100143.97;10417486;28;20413;-65
2021/09/12 01:08:08;;;;;;;14.23;4.10;;;;;;;15.69;65.50;100144.84;10418254;28;20053;-65
2021/09/12 01:13:11;;;;;;;9.85;4.43;;;;;;;15.70;65.47;100138.59;10410351;28;20477;-65
2021/09/12 01:18:12;;;;;;;9.50;4.50;;;;;;;15.67;65.21;100134.41;10423709;28;20051;-65
2021/09/12 01:23:14;;;;;;;9.82;4.35;;;;;;;15.73;65.21;100136.56;10404299;28;20515;-65
2021/09/12 01:28:18;;;;;;;13.88;4.50;;;;;;;15.70;65.55;100130.69;10418888;28;20498;-65
2021/09/12 01:33:19;;;;;;;11.48;3.60;;;;;;;15.74;65.32;100130.31;10405626;28;20061;-65
2021/09/12 01:38:21;;;;;;;11.18;4.25;;;;;;;15.52;65.56;100129.47;10413558;28;20064;-65
2021/09/12 01:43:23;;;;;;;9.07;4.57;;;;;;;15.48;65.93;100120.94;10415772;28;20401;-65
2021/09/12 01:48:24;;;;;;;13.70;4.00;;;;;;;15.64;65.68;100120.59;10429237;28;20053;-65
2021/09/12 01:53:26;;;;;;;13.13;4.00;;;;;;;15.63;65.60;100114.50;10418126;28;20053;-65
2021/09/12 01:58:28;;;;;;;11.07;4.20;;;;;;;15.76;65.64;100106.47;10414927;28;20060;-65
2021/09/12 02:03:30;;;;;;;6.63;3.88;;;;;;;15.79;65.48;100117.63;10423758;28;20531;-65
2021/09/12 02:08:32;;;;;;;14.55;4.15;;;;;;;15.75;65.32;100113.56;10415700;28;20053;-65
2021/09/12 02:13:33;;;;;;;13.60;4.32;;;;;;;15.75;65.20;100108.28;10402825;28;20065;-65
2021/09/12 02:18:35;;;;;;;10.32;4.10;;;;;;;15.75;65.50;100108.28;10424715;28;20079;-65
2021/09/12 02:23:37;;;;;;;8.20;4.13;;;;;;;15.77;65.23;100110.78;10432614;28;20534;-65
2021/09/12 02:28:38;;;;;;;7.75;3.95;;;;;;;15.78;65.25;100113.31;10408235;28;20059;-65
2021/09/12 02:33:40;;;;;;;7.18;3.33;;;;;;;15.79;65.17;100109.72;10414942;28;20052;-65
2021/09/12 02:38:42;;;;;;;12.02;3.55;;;;;;;15.81;64.96;100106.97;10421316;28;20365;-65
2021/09/12 02:43:43;;;;;;;14.02;4.40;;;;;;;15.67;65.14;100105.41;10427755;28;20041;-65
2021/09/12 02:48:45;;;;;;;9.95;4.40;;;;;;;15.35;65.53;100104.34;10407939;28;20405;-65
2021/09/12 02:53:47;;;;;;;9.05;4.50;;;;;;;15.06;66.63;100097.84;10410364;28;20052;-65
2021/09/12 02:58:48;;;;;;;9.85;4.05;;;;;;;15.08;66.74;100106.47;10432075;28;20140;-65
2021/09/12 03:03:50;;;;;;;21.60;5.03;;;;;;;15.09;66.25;100106.34;10400381;28;20059;-65
2021/09/12 03:08:52;;;;;;;6.53;4.28;;;;;;;15.01;66.08;100099.97;10423560;28;20049;-65
2021/09/12 03:13:54;;;;;;;9.20;4.20;;;;;;;14.89;66.14;100106.16;10394606;28;20501;-66
2021/09/12 03:18:55;;;;;;;14.25;5.03;;;;;;;14.62;66.51;100102.94;10391447;28;20520;-65
2021/09/12 03:23:57;;;;;;;19.05;4.28;;;;;;;14.47;67.23;100099.63;10390666;28;20051;-64
2021/09/12 03:28:59;;;;;;;8.98;4.07;;;;;;;14.47;67.00;100103.06;10406422;28;20079;-65
2021/09/12 03:34:00;;;;;;;15.75;5.38;;;;;;;14.41;66.99;100098.25;10420649;28;20515;-64
2021/09/12 03:39:03;;;;;;;14.57;5.63;;;;;;;14.34;67.17;100091.78;10420145;28;20049;-65
2021/09/12 03:44:05;;;;;;;9.07;4.22;;;;;;;14.13;67.55;100092.47;10417270;28;20049;-65
2021/09/12 03:49:06;;;;;;;166.27;9.43;;;;;;;14.16;67.72;100094.91;10416388;28;20055;-64
2021/09/12 03:54:08;;;;;;;993.60;27.15;;;;;;;14.04;67.39;100098.41;10402958;28;20062;-64
2021/09/12 03:59:10;;;;;;;386.98;13.80;;;;;;;13.95;68.22;100101.69;10421353;28;20473;-65
2021/09/12 04:04:12;;;;;;;896.85;25.08;;;;;;;13.91;67.95;100108.94;10425234;28;20055;-64
2021/09/12 04:09:14;;;;;;;653.97;18.52;;;;;;;13.84;68.42;100105.06;10418013;28;20047;-64
2021/09/12 04:14:16;;;;;;;519.90;16.50;;;;;;;13.71;69.24;100106.88;10427137;28;20059;-65
2021/09/12 04:19:17;;;;;;;493.25;17.13;;;;;;;13.84;68.91;100098.97;10422696;28;20296;-64
2021/09/12 04:24:20;;;;;;;467.38;16.77;;;;;;;13.86;68.95;100097.91;10405763;28;20052;-65
2021/09/12 04:29:23;;;;;;;147.57;7.57;;;;;;;13.98;69.05;100090.97;10413158;28;20417;-65
2021/09/12 04:34:24;;;;;;;49.97;5.45;;;;;;;14.05;69.08;100093.03;10406482;28;20937;-65
2021/09/12 04:39:26;;;;;;;78.82;5.07;;;;;;;14.04;68.63;100101.88;10397463;28;20057;-65
2021/09/12 04:44:28;;;;;;;125.03;5.45;;;;;;;13.97;68.77;100105.88;10397699;28;20068;-65
2021/09/12 04:49:29;;;;;;;230.38;7.18;;;;;;;13.96;68.93;100103.38;10412070;28;20152;-65
2021/09/12 04:54:31;;;;;;;179.98;6.80;;;;;;;13.92;69.04;100105.38;10392377;28;20424;-65
2021/09/12 04:59:33;;;;;;;182.02;6.32;;;;;;;13.97;69.03;100110.28;10398594;28;20048;-65
2021/09/12 05:04:35;;;;;;;211.20;6.68;;;;;;;14.02;68.72;100103.78;10418773;28;20412;-65
2021/09/12 05:09:37;;;;;;;350.27;9.50;;;;;;;13.97;69.04;100105.88;10429830;28;20088;-65
2021/09/12 05:14:38;;;;;;;79.30;4.75;;;;;;;13.99;68.90;100119.75;10394755;28;20520;-65
2021/09/12 05:19:40;;;;;;;126.25;5.57;;;;;;;14.07;68.61;100114.81;10399245;28;20354;-65
2021/09/12 05:24:42;;;;;;;107.88;5.38;;;;;;;14.10;68.61;100111.13;10415100;28;20049;-65
2021/09/12 05:29:43;;;;;;;38.03;3.90;;;;;;;14.15;68.21;100124.75;10407073;28;20049;-65
2021/09/12 05:34:45;;;;;;;37.97;3.60;;;;;;;14.24;68.20;100122.34;10422068;28;20490;-65
2021/09/12 05:39:47;;;;;;;33.92;3.03;;;;;;;14.22;68.21;100128.66;10408296;28;20048;-65
2021/09/12 05:44:48;;;;;;;194.63;7.50;;;;;;;14.10;67.95;100129.53;10406198;28;20053;-65
2021/09/12 05:49:50;;;;;;;9.65;2.70;;;;;;;14.17;67.76;100136.88;10410422;28;20150;-65
2021/09/12 05:54:52;;;;;;;60.95;3.83;;;;;;;14.31;67.42;100141.13;10404483;28;20061;-66
2021/09/12 05:59:54;;;;;;;23.42;3.35;;;;;;;14.57;66.79;100127.00;10405020;28;20053;-65
2021/09/12 06:04:55;;;;;;;13.48;3.40;;;;;;;14.76;66.43;100134.38;10420241;28;20052;-66
2021/09/12 06:09:57;;;;;;;91.22;5.28;;;;;;;14.86;65.80;100140.66;10409607;28;20057;-65
2021/09/12 06:14:59;;;;;;;29.63;4.05;;;;;;;14.99;65.30;100144.88;10397763;28;20063;-66
2021/09/12 06:20:01;;;;;;;22.67;3.90;;;;;;;14.85;65.82;100146.84;10395609;28;20056;-65
2021/09/12 06:25:03;;;;;;;14.95;3.65;;;;;;;14.86;65.79;100138.81;10420336;28;20050;-68
2021/09/12 06:30:07;;;;;;;7.57;3.50;;;;;;;15.00;65.12;100151.00;10393999;28;20049;-66
2021/09/12 06:35:09;;;;;;;8.27;3.20;;;;;;;15.06;65.36;100155.81;10410570;28;20061;-66
2021/09/12 06:40:12;;;;;;;8.32;3.10;;;;;;;15.22;65.02;100151.91;10400940;28;20132;-66
2021/09/12 06:45:14;;;;;;;7.13;3.70;;;;;;;15.43;64.40;100145.00;10411526;28;20459;-66
2021/09/12 06:50:15;;;;;;;8.32;3.45;;;;;;;15.55;63.84;100145.06;10410460;28;20050;-66
2021/09/12 06:55:18;;;;;;;4.53;3.10;;;;;;;15.57;64.01;100148.41;10422841;28;20063;-65
2021/09/12 07:00:20;;;;;;;7.78;3.15;;;;;;;16.04;63.21;100148.19;10419100;28;20489;-65
2021/09/12 07:05:22;;;;;;;4.80;3.20;;;;;;;16.38;62.43;100143.69;10399499;28;20398;-65
2021/09/12 07:10:24;;;;;;;4.97;2.90;;;;;;;16.58;62.10;100145.59;10407552;28;20068;-65
2021/09/12 07:15:26;;;;;;;4.63;3.10;;;;;;;16.82;61.63;100148.88;10404462;28;20519;-66
2021/09/12 07:20:27;;;;;;;3.95;2.63;;;;;;;16.97;60.90;100150.28;10411575;28;20547;-66
2021/09/12 07:25:30;;;;;;;5.18;2.67;;;;;;;16.88;61.06;100148.38;10420791;28;20200;-66
2021/09/12 07:30:32;;;;;;;8.25;2.70;;;;;;;17.13;60.81;100144.53;10388319;28;20051;-66
2021/09/12 07:35:34;;;;;;;3.67;2.58;;;;;;;17.24;60.21;100153.25;10404536;28;20053;-66
2021/09/12 07:40:35;;;;;;;8.52;2.80;;;;;;;17.22;60.66;100155.19;10410123;28;20523;-66
2021/09/12 07:45:37;;;;;;;5.40;2.88;;;;;;;17.16;60.84;100155.69;10402582;28;20151;-65
2021/09/12 07:50:39;;;;;;;5.40;3.05;;;;;;;17.37;60.31;100155.72;10392584;28;20057;-65
2021/09/12 07:55:40;;;;;;;5.15;3.28;;;;;;;17.89;59.85;100157.44;10428548;28;20057;-65
2021/09/12 08:00:42;;;;;;;4.63;3.22;;;;;;;18.29;58.94;100139.78;10409591;28;20063;-66
2021/09/12 08:05:44;;;;;;;5.22;2.90;;;;;;;18.53;58.04;100159.63;10430606;28;20413;-65
2021/09/12 08:10:46;;;;;;;7.72;2.90;;;;;;;19.00;57.03;100142.09;10421320;28;20307;-66
2021/09/12 08:15:48;;;;;;;6.07;2.40;;;;;;;19.58;55.59;100142.88;10402846;28;20063;-65
2021/09/12 08:20:50;;;;;;;7.25;2.60;;;;;;;20.08;54.56;100146.06;10389000;28;20058;-66
2021/09/12 08:25:51;;;;;;;7.93;2.90;;;;;;;20.39;53.58;100142.16;10395328;28;20405;-66
2021/09/12 08:30:53;;;;;;;6.22;2.70;;;;;;;20.72;52.78;100136.19;10392584;28;20053;-68
2021/09/12 08:35:55;;;;;;;6.60;2.35;;;;;;;21.03;51.04;100129.50;10426732;28;20147;-65
2021/09/12 08:40:59;;;;;;;3.33;2.28;;;;;;;21.09;50.96;100141.34;10425948;28;20063;-65
2021/09/12 08:46:01;;;;;;;6.70;2.15;;;;;;;21.19;50.90;100142.13;10403857;28;20327;-65
2021/09/12 08:51:03;;;;;;;4.28;2.40;;;;;;;21.35;50.46;100139.63;10428582;28;20053;-65
2021/09/12 08:56:05;;;;;;;5.57;2.40;;;;;;;21.59;50.15;100138.94;10437672;28;20420;-65
2021/09/12 09:01:07;;;;;;;6.05;2.53;;;;;;;21.45;50.10;100134.19;10437874;28;20052;-66
2021/09/12 09:06:19;;;;;;;3.70;2.38;;;;;;;21.81;48.97;100133.91;10422639;28;20057;-65
2021/09/12 09:11:37;;;;;;;5.25;2.20;;;;;;;22.08;48.15;100126.75;10430078;28;20316;-65
2021/09/12 09:16:39;;;;;;;4.78;1.98;;;;;;;22.26;48.62;100130.16;10437616;28;20052;-66
2021/09/12 09:21:43;;;;;;;6.68;2.40;;;;;;;22.51;47.57;100127.41;10436621;28;20049;-66
2021/09/12 09:26:50;;;;;;;4.72;2.28;;;;;;;22.24;47.50;100122.31;10410638;28;20144;-66
2021/09/12 09:32:09;;;;;;;3.83;2.00;;;;;;;22.51;46.79;100108.75;10423485;28;20568;-65
2021/09/12 09:37:12;;;;;;;3.17;1.80;;;;;;;22.66;46.62;100101.75;10433292;28;20140;-65
2021/09/12 09:42:37;;;;;;;4.32;2.10;;;;;;;22.65;46.10;100108.09;10435877;28;20412;-65
2021/09/12 09:47:41;;;;;;;6.80;2.15;;;;;;;23.16;44.27;100095.47;10406432;28;20056;-65
2021/09/12 09:52:46;;;;;;;7.35;1.85;;;;;;;23.36;44.32;100094.94;10411935;28;20075;-63
2021/09/12 09:57:52;;;;;;;8.98;1.98;;;;;;;23.80;43.45;100092.69;10425057;28;20057;-64
2021/09/12 10:02:54;;;;;;;2.58;1.63;;;;;;;24.15;41.52;100086.91;10416468;28;20057;-64
2021/09/12 10:07:57;;;;;;;5.63;1.83;;;;;;;24.08;41.72;100090.44;10416477;28;20041;-64
2021/09/12 10:13:02;;;;;;;4.80;1.95;;;;;;;24.48;40.19;100076.00;10415859;28;20093;-64
2021/09/12 10:18:05;;;;;;;6.22;1.65;;;;;;;24.51;38.47;100078.34;10416012;28;20471;-63
2021/09/12 10:23:08;;;;;;;4.40;1.55;;;;;;;24.40;37.61;100081.41;10396140;28;20083;-64
2021/09/12 10:28:10;;;;;;;4.82;1.70;;;;;;;24.04;39.33;100087.25;10395523;28;20136;-64
2021/09/12 10:33:12;;;;;;;6.55;1.70;;;;;;;23.64;38.61;100090.06;10406207;28;20136;-64
2021/09/12 10:38:32;;;;;;;5.88;1.70;;;;;;;23.52;38.84;100078.09;10432055;28;20075;-64
2021/09/12 10:43:39;;;;;;;4.93;1.67;;;;;;;23.36;38.52;100075.44;10412887;28;20059;-64
2021/09/12 10:49:01;;;;;;;6.15;1.45;;;;;;;23.49;38.75;100071.25;10435564;28;20132;-63
2021/09/12 10:54:03;;;;;;;3.95;1.48;;;;;;;23.48;38.14;100072.28;10435849;28;20056;-63
2021/09/12 10:59:11;;;;;;;2.38;1.45;;;;;;;23.59;37.56;100067.56;10435331;28;20128;-63
2021/09/12 11:04:15;;;;;;;5.45;1.70;;;;;;;23.47;37.48;100061.78;10435293;28;20045;-64
2021/09/12 11:09:16;;;;;;;4.75;1.70;;;;;;;23.32;38.96;100063.44;10434000;28;20604;-64
2021/09/12 11:14:18;;;;;;;3.65;1.60;;;;;;;23.31;38.67;100059.91;10434614;28;20057;-65
2021/09/12 11:19:20;;;;;;;5.15;1.52;;;;;;;23.16;38.11;100058.97;10434690;28;20056;-64
2021/09/12 11:24:27;;;;;;;6.72;1.80;;;;;;;23.20;38.95;100054.09;10434491;28;20055;-64
2021/09/12 11:29:34;;;;;;;7.13;2.03;;;;;;;23.25;38.76;100057.94;10426041;28;20168;-64
2021/09/12 11:34:38;;;;;;;4.97;1.80;;;;;;;23.37;39.47;100059.22;10393438;28;20197;-64
2021/09/12 11:39:44;;;;;;;3.53;1.70;;;;;;;23.81;38.35;100042.78;10393512;28;20478;-64
2021/09/12 11:44:48;;;;;;;3.67;1.75;;;;;;;23.89;38.27;100042.75;10392495;28;20136;-64
2021/09/12 11:50:04;;;;;;;5.45;1.70;;;;;;;23.71;37.48;100034.16;10393516;28;20397;-64
2021/09/12 11:55:27;;;;;;;6.22;1.98;;;;;;;23.55;38.75;100024.38;10392856;28;20140;-64
2021/09/12 12:00:29;;;;;;;8.43;2.03;;;;;;;23.72;38.14;100020.59;10392538;28;20140;-64
2021/09/12 12:05:31;;;;;;;2.95;1.48;;;;;;;23.78;37.86;100022.59;10392386;28;20524;-64
2021/09/12 12:10:35;;;;;;;5.63;1.70;;;;;;;23.87;38.30;100018.88;10392472;28;20057;-65
2021/09/12 12:15:45;;;;;;;4.68;1.50;;;;;;;24.07;36.37;100014.78;10391984;28;20057;-64
2021/09/12 12:20:48;;;;;;;5.28;1.60;;;;;;;24.37;37.25;100014.94;10392491;28;20138;-64
2021/09/12 12:25:51;;;;;;;3.60;1.50;;;;;;;24.71;36.45;100018.03;10400220;28;20134;-64
2021/09/12 12:31:12;;;;;;;3.75;1.60;;;;;;;24.85;35.64;99998.53;10400222;28;20049;-65
2021/09/12 12:36:22;;;;;;;3.20;1.55;;;;;;;25.24;35.12;100015.19;10400184;28;20064;-65
2021/09/12 12:41:25;;;;;;;3.95;1.65;;;;;;;25.28;35.48;100011.16;10399838;28;20064;-65
2021/09/12 12:46:46;;;;;;;4.40;1.70;;;;;;;24.97;35.25;100005.94;10398418;28;20144;-65
2021/09/12 12:52:07;;;;;;;4.47;1.50;;;;;;;24.81;35.36;100002.56;10399217;28;20190;-65
2021/09/12 12:57:12;;;;;;;3.17;1.60;;;;;;;24.89;35.41;99999.84;10399349;28;20061;-64
2021/09/12 13:02:15;;;;;;;5.53;1.55;;;;;;;24.72;34.73;99993.78;10398681;28;20064;-65
2021/09/12 13:07:17;;;;;;;4.90;1.48;;;;;;;24.69;35.08;99994.13;10398905;28;20076;-65
2021/09/12 13:12:18;;;;;;;2.75;1.45;;;;;;;24.82;34.80;99997.03;10402636;28;20500;-65
2021/09/12 13:17:27;;;;;;;2.85;1.40;;;;;;;24.85;34.03;99993.19;10439346;28;20445;-64
2021/09/12 13:22:29;;;;;;;5.88;1.70;;;;;;;25.17;34.45;99984.81;10439543;28;20063;-64
2021/09/12 13:27:30;;;;;;;7.40;2.00;;;;;;;25.59;33.35;99981.53;10439080;28;20087;-65
2021/09/12 13:32:32;;;;;;;7.03;1.67;;;;;;;25.59;33.04;99982.34;10405130;28;20148;-64
2021/09/12 13:37:34;;;;;;;7.70;1.40;;;;;;;25.27;33.06;99966.63;10397852;28;20053;-64
2021/09/12 13:42:36;;;;;;;3.97;1.40;;;;;;;25.42;33.58;99964.81;10397449;28;20058;-65
2021/09/12 13:47:39;;;;;;;3.65;1.50;;;;;;;25.59;33.01;99970.81;10415093;28;20487;-65
2021/09/12 13:52:41;;;;;;;4.90;1.90;;;;;;;25.44;32.92;99965.47;10438400;28;20515;-64
2021/09/12 13:57:42;;;;;;;5.65;1.70;;;;;;;25.42;33.26;99959.47;10437781;28;20515;-64
2021/09/12 14:02:45;;;;;;;4.22;1.60;;;;;;;25.16;34.40;99966.28;10437498;28;20144;-64
2021/09/12 14:07:47;;;;;;;6.65;2.00;;;;;;;24.22;35.92;99972.97;10437335;28;20404;-63
2021/09/12 14:12:49;;;;;;;3.97;1.77;;;;;;;23.82;36.45;99973.16;10435907;28;20063;-63
2021/09/12 14:17:51;;;;;;;5.68;1.77;;;;;;;23.27;38.00;99970.53;10436793;28;20056;-64
2021/09/12 14:22:53;;;;;;;10.57;1.85;;;;;;;23.05;38.66;99981.09;10435411;28;20067;-63
2021/09/12 14:27:55;;;;;;;5.13;1.60;;;;;;;23.09;37.66;99969.06;10436753;28;20144;-63
2021/09/12 14:32:57;;;;;;;5.40;1.85;;;;;;;23.40;37.41;99953.97;10395433;28;20064;-64
2021/09/12 14:37:59;;;;;;;4.50;1.70;;;;;;;23.61;36.35;99948.06;10395400;28;20148;-64
2021/09/12 14:43:02;;;;;;;4.68;1.35;;;;;;;23.75;36.34;99945.50;10394731;28;20057;-64
2021/09/12 14:48:04;;;;;;;4.97;1.50;;;;;;;24.14;36.20;99932.91;10394620;28;20068;-64
2021/09/12 14:53:05;;;;;;;4.70;1.80;;;;;;;24.40;36.17;99947.75;10394752;28;20449;-65
2021/09/12 14:58:07;;;;;;;2.92;1.50;;;;;;;24.28;35.97;99936.66;10394347;28;20057;-65
2021/09/12 15:03:09;;;;;;;6.07;1.80;;;;;;;24.61;34.88;99937.22;10393216;28;20053;-65
2021/09/12 15:08:11;;;;;;;7.10;1.63;;;;;;;24.65;34.11;99933.16;10394163;28;20097;-65
2021/09/12 15:13:13;;;;;;;5.75;2.30;;;;;;;24.68;34.43;99935.44;10394436;28;20144;-65
2021/09/12 15:18:15;;;;;;;4.13;1.50;;;;;;;24.67;34.67;99931.97;10393778;28;20053;-65
2021/09/12 15:23:16;;;;;;;3.17;1.50;;;;;;;24.33;35.13;99934.25;10394124;28;20156;-65
2021/09/12 15:28:19;;;;;;;3.78;1.60;;;;;;;24.29;34.53;99928.44;10393524;28;20057;-65
2021/09/12 15:33:20;;;;;;;4.30;1.55;;;;;;;24.29;34.19;99922.25;10393063;28;20053;-65
2021/09/12 15:38:22;;;;;;;3.95;1.60;;;;;;;24.35;34.84;99923.41;10393436;28;20312;-65
2021/09/12 15:43:24;;;;;;;3.70;1.60;;;;;;;23.91;35.01;99924.03;10393052;28;20057;-65
2021/09/12 15:48:25;;;;;;;5.80;1.55;;;;;;;23.81;35.29;99918.09;10393059;28;20132;-65
2021/09/12 15:53:28;;;;;;;4.03;1.50;;;;;;;23.68;35.52;99917.81;10393100;28;20072;-65
2021/09/12 15:58:30;;;;;;;5.22;1.80;;;;;;;23.66;36.53;99919.84;10391749;28;20049;-65
2021/09/12 16:03:31;;;;;;;5.00;1.80;;;;;;;23.58;36.74;99914.53;10392542;28;20589;-65
2021/09/12 16:08:33;;;;;;;3.65;1.60;;;;;;;23.66;36.45;99909.16;10426549;28;20207;-65
2021/09/12 16:13:36;;;;;;;7.32;1.80;;;;;;;23.63;36.28;99909.53;10433518;28;20056;-65
2021/09/12 16:18:37;;;;;;;3.80;1.77;;;;;;;23.46;36.90;99906.09;10433578;28;20060;-65
2021/09/12 16:23:41;;;;;;;4.70;1.85;;;;;;;23.24;37.31;99903.34;10433092;28;20135;-65
2021/09/12 16:28:44;;;;;;;9.93;1.88;;;;;;;22.92;37.71;99903.47;10431574;28;20140;-65
2021/09/12 16:33:46;;;;;;;6.70;1.90;;;;;;;22.93;38.38;99900.59;10391876;28;20081;-65
2021/09/12 16:38:48;;;;;;;6.18;1.80;;;;;;;22.73;39.33;99904.66;10392105;28;20060;-65
2021/09/12 16:43:56;;;;;;;6.00;1.80;;;;;;;22.36;39.99;99899.84;10391484;28;20061;-65
2021/09/12 16:48:58;;;;;;;4.43;1.88;;;;;;;21.99;40.34;99902.13;10391904;28;20061;-65
2021/09/12 16:54:00;;;;;;;4.30;1.73;;;;;;;21.81;41.26;99906.78;10391463;28;20143;-65
2021/09/12 16:59:02;;;;;;;4.70;1.90;;;;;;;21.51;41.92;99907.38;10391440;28;20140;-65
2021/09/12 17:04:04;;;;;;;4.95;1.83;;;;;;;21.15;43.21;99908.53;10391867;28;20067;-65
2021/09/12 17:09:06;;;;;;;3.67;2.08;;;;;;;20.87;44.21;99913.19;10394347;28;20057;-65
2021/09/12 17:14:08;;;;;;;13.85;2.25;;;;;;;20.90;45.65;99915.56;10398699;28;20053;-65
2021/09/12 17:19:10;;;;;;;6.50;2.22;;;;;;;20.83;46.50;99912.69;10398251;28;20054;-65
2021/09/12 17:24:26;;;;;;;14.35;2.63;;;;;;;20.60;47.77;99914.19;10398197;28;20061;-65
2021/09/12 17:29:28;;;;;;;9.70;2.90;;;;;;;20.42;49.05;99916.03;10398157;28;20075;-65
2021/09/12 17:34:29;;;;;;;5.22;2.00;;;;;;;20.22;49.92;99918.03;10397748;28;20156;-65
2021/09/12 17:39:31;;;;;;;17.30;2.00;;;;;;;20.02;50.31;99923.66;10397791;28;20064;-65
2021/09/12 17:44:33;;;;;;;4.20;1.90;;;;;;;19.83;50.21;99935.25;10398091;28;20049;-65
2021/09/12 17:49:34;;;;;;;20.45;2.25;;;;;;;19.50;51.46;99924.41;10397266;28;20458;-65
2021/09/12 17:54:36;;;;;;;22.77;2.22;;;;;;;19.35;51.94;99930.22;10396955;28;20634;-65
2021/09/12 17:59:38;;;;;;;6.65;2.10;;;;;;;19.09;52.66;99936.31;10397091;28;20060;-64
2021/09/12 18:04:39;;;;;;;5.28;1.90;;;;;;;18.88;53.70;99936.50;10396693;28;20075;-65
2021/09/12 18:09:41;;;;;;;4.72;1.80;;;;;;;18.82;54.15;99939.72;10395008;28;20457;-65
2021/09/12 18:14:43;;;;;;;9.27;2.20;;;;;;;18.82;54.23;99955.63;10396420;28;20144;-64
2021/09/12 18:19:44;;;;;;;6.35;2.03;;;;;;;18.70;54.67;99953.28;10395248;28;20053;-65
2021/09/12 18:24:46;;;;;;;12.75;2.75;;;;;;;18.53;54.96;99960.13;10395874;28;20075;-65
2021/09/12 18:29:48;;;;;;;5.88;2.05;;;;;;;18.46;55.15;99972.28;10395466;28;20369;-64
2021/09/12 18:34:49;;;;;;;6.70;2.10;;;;;;;18.35;55.37;99977.72;10394019;28;20515;-64
2021/09/12 18:39:51;;;;;;;5.00;2.15;;;;;;;18.23;55.89;99984.13;10395477;28;20064;-64
2021/09/12 18:44:53;;;;;;;4.32;2.42;;;;;;;18.05;56.55;99988.41;10395812;28;20126;-66
2021/09/12 18:49:54;;;;;;;4.70;2.30;;;;;;;17.88;56.37;99989.91;10395199;28;20049;-64
2021/09/12 18:54:56;;;;;;;6.53;2.70;;;;;;;17.61;56.92;100003.75;10394667;28;20136;-65
2021/09/12 18:59:58;;;;;;;4.90;2.13;;;;;;;17.45;57.95;100005.22;10394671;28;20417;-64
2021/09/12 19:04:59;;;;;;;8.73;3.70;;;;;;;17.47;58.17;100019.13;10394742;28;20057;-64
2021/09/12 19:10:03;;;;;;;12.18;3.53;;;;;;;17.38;58.61;100015.50;10394114;28;20061;-64
2021/09/12 19:15:05;;;;;;;8.02;3.10;;;;;;;17.28;58.58;100027.78;10393749;28;20144;-64
2021/09/12 19:20:07;;;;;;;8.88;3.25;;;;;;;17.07;59.25;100027.00;10393883;28;20053;-65
2021/09/12 19:25:09;;;;;;;11.70;2.75;;;;;;;17.03;59.43;100034.34;10393772;28;20057;-65
2021/09/12 19:30:11;;;;;;;9.38;2.80;;;;;;;16.98;59.47;100036.53;10393425;28;20054;-64
2021/09/12 19:35:15;;;;;;;7.30;2.58;;;;;;;16.86;59.91;100034.06;10393309;28;20493;-64
2021/09/12 19:40:17;;;;;;;6.82;2.70;;;;;;;16.84;59.76;100046.56;10393203;28;20054;-64
2021/09/12 19:45:18;;;;;;;14.48;3.00;;;;;;;16.78;60.18;100050.56;10393317;28;20136;-64
2021/09/12 19:50:20;;;;;;;13.50;2.90;;;;;;;16.65;60.20;100051.72;10392220;28;20089;-65
2021/09/12 19:55:22;;;;;;;9.50;2.70;;;;;;;16.53;60.41;100050.91;10393086;28;20390;-64
2021/09/12 20:00:24;;;;;;;5.95;2.78;;;;;;;16.33;61.22;100041.13;10392934;28;20964;-64
2021/09/12 20:05:26;;;;;;;7.88;2.80;;;;;;;16.15;61.51;100048.75;10392994;28;20441;-66
2021/09/12 20:10:28;;;;;;;8.07;3.10;;;;;;;16.17;61.32;100045.97;10392394;28;20053;-65
2021/09/12 20:15:30;;;;;;;9.35;3.33;;;;;;;16.16;61.42;100054.88;10392310;28;20162;-65
2021/09/12 20:20:32;;;;;;;8.55;2.90;;;;;;;16.03;61.57;100054.16;10392611;28;20152;-65
2021/09/12 20:25:33;;;;;;;8.45;3.08;;;;;;;16.02;61.56;100066.50;10392349;28;20290;-65
2021/09/12 20:30:35;;;;;;;7.95;3.15;;;;;;;15.97;61.91;100059.94;10392277;28;20057;-65
2021/09/12 20:35:37;;;;;;;9.52;3.10;;;;;;;15.99;62.23;100061.50;10392054;28;20167;-65
2021/09/12 20:40:38;;;;;;;19.35;3.28;;;;;;;16.02;61.86;100068.31;10423066;28;20053;-65
2021/09/12 20:45:40;;;;;;;12.90;3.22;;;;;;;16.04;61.80;100061.97;10438838;28;20082;-65
2021/09/12 20:50:43;;;;;;;7.47;3.03;;;;;;;16.04;61.51;100061.13;10441344;28;20053;-65
2021/09/12 20:55:45;;;;;;;6.53;3.20;;;;;;;16.00;61.46;100063.16;10440282;28;20061;-65
2021/09/12 21:00:46;;;;;;;6.07;2.80;;;;;;;15.97;61.58;100073.97;10439559;28;20067;-65
2021/09/12 21:05:48;;;;;;;9.70;3.47;;;;;;;15.87;61.82;100074.81;10440170;28;20112;-65
2021/09/12 21:10:50;;;;;;;12.05;3.10;;;;;;;15.69;62.28;100082.41;10439431;28;20794;-66
2021/09/12 21:15:54;;;;;;;11.55;3.30;;;;;;;15.67;62.36;100088.75;10398391;28;20160;-65
2021/09/12 21:20:56;;;;;;;10.15;3.15;;;;;;;15.65;62.28;100091.50;10398495;28;20057;-65
2021/09/12 21:25:58;;;;;;;13.57;3.03;;;;;;;15.64;62.25;100092.44;10398257;28;20405;-65
2021/09/12 21:30:59;;;;;;;10.48;2.90;;;;;;;15.60;62.48;100096.28;10398095;28;20140;-65
2021/09/12 21:36:01;;;;;;;12.18;3.10;;;;;;;15.58;62.90;100094.72;10397922;28;20063;-63
2021/09/12 21:41:04;;;;;;;9.75;3.00;;;;;;;15.52;62.97;100101.31;10397970;28;20147;-63
2021/09/12 21:46:06;;;;;;;6.57;3.13;;;;;;;15.50;62.70;100108.50;10397731;28;20148;-64
2021/09/12 21:51:07;;;;;;;9.18;2.88;;;;;;;15.28;62.95;100109.28;10397532;28;20060;-64
2021/09/12 21:56:09;;;;;;;13.32;3.45;;;;;;;15.20;63.13;100108.19;10397137;28;20054;-64
2021/09/12 22:01:11;;;;;;;12.88;3.80;;;;;;;15.18;63.05;100104.81;10397247;28;20063;-63
2021/09/12 22:06:13;;;;;;;10.13;3.20;;;;;;;14.97;63.68;100115.19;10396593;28;20061;-66
2021/09/12 22:11:15;;;;;;;9.07;3.38;;;;;;;14.95;63.82;100117.09;10396610;28;20057;-65
2021/09/12 22:16:17;;;;;;;9.00;3.10;;;;;;;14.93;63.68;100119.00;10396301;28;20057;-65
2021/09/12 22:21:19;;;;;;;8.82;3.20;;;;;;;14.89;63.78;100121.97;10396262;28;20056;-65
2021/09/12 22:26:20;;;;;;;13.57;3.25;;;;;;;14.86;63.43;100115.13;10396050;28;20424;-65
2021/09/12 22:31:22;;;;;;;9.63;3.30;;;;;;;14.78;63.64;100121.94;10396358;28;20584;-65
2021/09/12 22:36:25;;;;;;;12.90;3.17;;;;;;;14.69;63.44;100115.56;10394954;28;20053;-65
2021/09/12 22:41:27;;;;;;;6.53;3.45;;;;;;;14.58;63.61;100111.06;10395843;28;20045;-65
2021/09/12 22:46:29;;;;;;;14.18;3.25;;;;;;;14.20;64.58;100128.78;10395018;28;20441;-65
2021/09/12 22:51:30;;;;;;;11.38;3.97;;;;;;;14.29;64.40;100128.09;10395577;28;20149;-65
2021/09/12 22:56:32;;;;;;;6.93;3.90;;;;;;;14.37;64.11;100124.94;10394982;28;20061;-65
2021/09/12 23:01:34;;;;;;;6.57;3.28;;;;;;;14.35;64.46;100125.03;10393308;28;20053;-65
2021/09/12 23:06:36;;;;;;;6.90;3.35;;;;;;;14.35;64.27;100130.28;10393965;28;20060;-65
2021/09/12 23:11:38;;;;;;;7.38;3.75;;;;;;;14.25;64.39;100131.91;10394138;28;20053;-65